Ocean Wave — WDG3180 — position and weather

sailwx.info

Track history (hours):
 
Tides and Currents Weather Stations Pressure Air Temp Water Temp Dewpoint Dewpoint Depression Visibility Wind Speed Wind Dir Waves Ship Positions

Ocean Wave

Owner: Crowley Marine Services Inc., SEATTLE, WA. More information available from US FCC via Universal Licensing System and Coast Guard Vessel Documentation Center.

Last reported at 2017-Nov-24 09:28 UTC. Time now 2017-Nov-24 09:37 UTC.
Position N 30°04' W 093°43'.

Length 44 m; draft 6.5 m.

Type: Tug. MMSI: 367523340.

Date/timePositionNaut miles runAvg speedWind from/ knotsBaromVisibWave heightAir tempDewpointWater temp
2017-Nov-24 09:28N 30°04' W 093°43'0 0.0
2017-Nov-24 07:13N 30°04' W 093°43'0 0.0
2017-Nov-24 06:46N 30°04' W 093°43'0 0.0
2017-Nov-24 06:22N 30°04' W 093°43'20 1.2
2017-Nov-23 13:20N 30°00' W 093°20'3 8.7
2017-Nov-23 13:00N 30°03' W 093°20'4 7.8
2017-Nov-23 12:30N 30°07' W 093°20'4 7.2
2017-Nov-23 12:01N 30°10' W 093°19'3 6.3
2017-Nov-23 11:30N 30°12' W 093°16'1 0.4
2017-Nov-23 09:35N 30°13' W 093°16'0 0.0
2017-Nov-23 08:17N 30°13' W 093°16'0 0.0
2017-Nov-23 05:50N 30°13' W 093°16'0 0.0
2017-Nov-23 05:20N 30°13' W 093°16'0 0.0
2017-Nov-23 01:32N 30°13' W 093°16'0 0.0
2017-Nov-23 01:26N 30°13' W 093°16'0 0.0
2017-Nov-23 00:59N 30°13' W 093°16'0 0.0
2017-Nov-23 00:26N 30°13' W 093°16'0 0.0
2017-Nov-22 23:59N 30°13' W 093°16'0 0.0
2017-Nov-22 23:29N 30°13' W 093°16'0 0.0
2017-Nov-22 22:59N 30°13' W 093°16'0 0.0
2017-Nov-22 22:23N 30°13' W 093°16'0 0.0
2017-Nov-22 21:11N 30°13' W 093°16'0 0.0
2017-Nov-22 20:47N 30°13' W 093°16'  
2017-Nov-19 23:02N 30°13' W 093°16'0 0.0
2017-Nov-19 22:41N 30°13' W 093°16'0 0.0
2017-Nov-19 22:29N 30°13' W 093°16'0 0.0
2017-Nov-19 21:59N 30°13' W 093°16'0 0.0
2017-Nov-19 21:29N 30°13' W 093°16'0 0.0
2017-Nov-19 15:50N 30°13' W 093°16'0 0.0
2017-Nov-19 12:29N 30°13' W 093°16'0 0.0
2017-Nov-19 11:53N 30°13' W 093°16'0 0.0
2017-Nov-19 11:26N 30°13' W 093°16'0 0.0
2017-Nov-19 07:29N 30°13' W 093°16'0 0.0
2017-Nov-19 06:41N 30°13' W 093°16'0 0.0
2017-Nov-19 06:17N 30°13' W 093°16'0 0.0
2017-Nov-18 19:47N 30°13' W 093°16'0 0.0
2017-Nov-18 19:17N 30°13' W 093°16'0 0.0
2017-Nov-18 18:59N 30°13' W 093°16'0 0.0
2017-Nov-18 18:29N 30°13' W 093°16'0 0.0
2017-Nov-18 17:47N 30°13' W 093°16'0 0.0
2017-Nov-18 17:29N 30°13' W 093°16'0 0.0
2017-Nov-18 16:41N 30°13' W 093°16'0 0.0
2017-Nov-18 16:17N 30°13' W 093°16'0 0.0
2017-Nov-18 02:05N 30°13' W 093°16'0 0.0
2017-Nov-17 22:41N 30°13' W 093°16'0 0.0
2017-Nov-17 22:29N 30°13' W 093°16'0 0.0
2017-Nov-17 21:41N 30°13' W 093°16'0 0.0
2017-Nov-17 20:11N 30°13' W 093°16'0 0.0
2017-Nov-17 19:53N 30°13' W 093°16'0 0.0
2017-Nov-17 19:29N 30°13' W 093°16'0 0.0
2017-Nov-17 18:59N 30°13' W 093°16'0 0.0
2017-Nov-17 18:23N 30°13' W 093°16'0 0.0
2017-Nov-17 17:47N 30°13' W 093°16'0 0.0
2017-Nov-17 17:29N 30°13' W 093°16'0 0.0
2017-Nov-17 16:29N 30°13' W 093°16'0 0.0
2017-Nov-17 15:59N 30°13' W 093°16'0 0.0
2017-Nov-17 15:29N 30°13' W 093°16'0 0.0
2017-Nov-17 14:41N 30°13' W 093°16'0 0.0
2017-Nov-17 14:29N 30°13' W 093°16'0 0.0
2017-Nov-17 13:59N 30°13' W 093°16'0 0.0
2017-Nov-17 13:05N 30°13' W 093°16'0 0.0
2017-Nov-17 12:59N 30°13' W 093°16'0 0.0
2017-Nov-17 10:17N 30°13' W 093°16'0 0.0
2017-Nov-17 09:59N 30°13' W 093°16'0 0.0
2017-Nov-17 09:29N 30°13' W 093°16'0 0.0
2017-Nov-17 08:47N 30°13' W 093°16'0 0.0
2017-Nov-17 08:23N 30°13' W 093°16'0 0.0
2017-Nov-17 06:41N 30°13' W 093°16'0 0.0
2017-Nov-17 05:23N 30°13' W 093°16'0 0.0
2017-Nov-17 04:53N 30°13' W 093°16'0 0.0
2017-Nov-17 04:29N 30°13' W 093°16'0 0.0
2017-Nov-17 03:59N 30°13' W 093°16'0 0.0
2017-Nov-17 03:26N 30°13' W 093°16'0 0.0
2017-Nov-17 02:59N 30°13' W 093°16'0 0.0
2017-Nov-17 02:11N 30°13' W 093°16'0 0.0
2017-Nov-17 01:59N 30°13' W 093°16'0 0.0
2017-Nov-17 00:05N 30°13' W 093°16'0 0.0
2017-Nov-16 23:59N 30°13' W 093°16'0 0.0
2017-Nov-16 23:29N 30°13' W 093°16'0 0.0
2017-Nov-16 22:59N 30°13' W 093°16'0 0.0
2017-Nov-16 22:23N 30°13' W 093°16'0 0.0
2017-Nov-16 21:53N 30°13' W 093°16'0 0.0
2017-Nov-16 21:29N 30°13' W 093°16'0 0.0
2017-Nov-16 20:53N 30°13' W 093°16'0 0.0
2017-Nov-16 15:17N 30°13' W 093°16'0 0.0
2017-Nov-16 14:47N 30°13' W 093°16'0 0.0
2017-Nov-16 14:20N 30°13' W 093°16'0 0.0
2017-Nov-16 10:32N 30°13' W 093°16'0 0.0
2017-Nov-16 10:26N 30°13' W 093°16'0 0.0
2017-Nov-16 09:56N 30°13' W 093°16'0 0.0
2017-Nov-16 09:26N 30°13' W 093°16'0 0.0
2017-Nov-16 06:08N 30°13' W 093°16'0 0.0
2017-Nov-16 05:56N 30°13' W 093°16'0 0.0
2017-Nov-16 05:20N 30°13' W 093°16'0 0.0
2017-Nov-16 03:32N 30°13' W 093°16'0 0.0
2017-Nov-16 03:20N 30°13' W 093°16'0 0.0
2017-Nov-16 02:56N 30°13' W 093°16'0 0.0
2017-Nov-16 01:20N 30°13' W 093°16'0 0.0
2017-Nov-15 23:26N 30°13' W 093°16'0 0.0
2017-Nov-15 22:56N 30°13' W 093°16'0 0.0
2017-Nov-15 22:14N 30°13' W 093°16'0 0.0
2017-Nov-15 21:50N 30°13' W 093°16'0 0.0
2017-Nov-15 21:26N 30°13' W 093°16'0 0.0
2017-Nov-15 20:38N 30°13' W 093°16'0 0.0
2017-Nov-15 19:14N 30°13' W 093°16'0 0.0
2017-Nov-15 18:50N 30°13' W 093°16'0 0.0
2017-Nov-15 18:26N 30°13' W 093°16'0 0.0
2017-Nov-15 17:32N 30°13' W 093°16'0 0.0
2017-Nov-15 17:02N 30°13' W 093°16'0 0.0
2017-Nov-15 16:50N 30°13' W 093°16'0 0.0
2017-Nov-15 16:26N 30°13' W 093°16'0 0.0
2017-Nov-15 15:59N 30°13' W 093°16'0 0.0
2017-Nov-15 15:29N 30°13' W 093°16'0 0.0
2017-Nov-15 14:47N 30°13' W 093°16'0 0.0
2017-Nov-15 09:08N 30°13' W 093°16'0 0.0
2017-Nov-15 08:59N 30°13' W 093°16'0 0.0
2017-Nov-15 06:41N 30°13' W 093°16'0 0.0
2017-Nov-15 05:53N 30°13' W 093°16'0 0.0
2017-Nov-15 04:29N 30°13' W 093°16'0 0.0
2017-Nov-15 03:44N 30°13' W 093°16'0 0.0
2017-Nov-15 01:44N 30°13' W 093°16'0 0.0
2017-Nov-15 01:26N 30°13' W 093°16'0 0.0
2017-Nov-15 00:26N 30°13' W 093°16'0 0.0
2017-Nov-14 23:56N 30°13' W 093°16'0 0.0
2017-Nov-14 23:29N 30°13' W 093°16'0 0.0
2017-Nov-14 22:59N 30°13' W 093°16'0 0.0
2017-Nov-14 22:23N 30°13' W 093°16'0 0.0
2017-Nov-14 21:59N 30°13' W 093°16'0 0.0
2017-Nov-14 21:29N 30°13' W 093°16'0 0.0
2017-Nov-14 20:59N 30°13' W 093°16'0 0.0
2017-Nov-14 20:29N 30°13' W 093°16'0 0.0
2017-Nov-14 19:59N 30°13' W 093°16'0 0.0
2017-Nov-14 19:17N 30°13' W 093°16'0 0.0
2017-Nov-14 18:59N 30°13' W 093°16'0 0.0
2017-Nov-14 18:29N 30°13' W 093°16'0 0.0
2017-Nov-14 17:47N 30°13' W 093°16'0 0.0
2017-Nov-14 17:29N 30°13' W 093°16'0 0.0
2017-Nov-14 16:59N 30°13' W 093°16'0 0.0
2017-Nov-14 16:29N 30°13' W 093°16'0 0.0
2017-Nov-14 15:59N 30°13' W 093°16'0 0.0
2017-Nov-14 15:29N 30°13' W 093°16'0 0.0
2017-Nov-14 14:44N 30°13' W 093°16'0 0.0
2017-Nov-14 14:23N 30°13' W 093°16'0 0.0
2017-Nov-14 13:53N 30°13' W 093°16'0 0.0
2017-Nov-14 13:17N 30°13' W 093°16'  
Track history (hours):
 
Tides and Currents Weather Stations Pressure Air Temp Water Temp Dewpoint Dewpoint Depression Visibility Wind Speed Wind Dir Waves Ship Positions

Ocean Wave

Owner: Crowley Marine Services Inc., SEATTLE, WA. More information available from US FCC via Universal Licensing System and Coast Guard Vessel Documentation Center.

Last reported at 2017-Nov-24 09:28 UTC. Time now 2017-Nov-24 09:37 UTC.
Position N 30°04' W 093°43'.

Length 44 m; draft 6.5 m.

Type: Tug. MMSI: 367523340.

Date/timePositionNaut miles runAvg speedWind from/ knotsBaromVisibWave heightAir tempDewpointWater temp
2017-Nov-24 09:28N 30°04' W 093°43'0 0.0
2017-Nov-24 07:13N 30°04' W 093°43'0 0.0
2017-Nov-24 06:46N 30°04' W 093°43'0 0.0
2017-Nov-24 06:22N 30°04' W 093°43'20 1.2
2017-Nov-23 13:20N 30°00' W 093°20'3 8.7
2017-Nov-23 13:00N 30°03' W 093°20'4 7.8
2017-Nov-23 12:30N 30°07' W 093°20'4 7.2
2017-Nov-23 12:01N 30°10' W 093°19'3 6.3
2017-Nov-23 11:30N 30°12' W 093°16'1 0.4
2017-Nov-23 09:35N 30°13' W 093°16'0 0.0
2017-Nov-23 08:17N 30°13' W 093°16'0 0.0
2017-Nov-23 05:50N 30°13' W 093°16'0 0.0
2017-Nov-23 05:20N 30°13' W 093°16'0 0.0
2017-Nov-23 01:32N 30°13' W 093°16'0 0.0
2017-Nov-23 01:26N 30°13' W 093°16'0 0.0
2017-Nov-23 00:59N 30°13' W 093°16'0 0.0
2017-Nov-23 00:26N 30°13' W 093°16'0 0.0
2017-Nov-22 23:59N 30°13' W 093°16'0 0.0
2017-Nov-22 23:29N 30°13' W 093°16'0 0.0
2017-Nov-22 22:59N 30°13' W 093°16'0 0.0
2017-Nov-22 22:23N 30°13' W 093°16'0 0.0
2017-Nov-22 21:11N 30°13' W 093°16'0 0.0
2017-Nov-22 20:47N 30°13' W 093°16'  
2017-Nov-19 23:02N 30°13' W 093°16'0 0.0
2017-Nov-19 22:41N 30°13' W 093°16'0 0.0
2017-Nov-19 22:29N 30°13' W 093°16'0 0.0
2017-Nov-19 21:59N 30°13' W 093°16'0 0.0
2017-Nov-19 21:29N 30°13' W 093°16'0 0.0
2017-Nov-19 15:50N 30°13' W 093°16'0 0.0
2017-Nov-19 12:29N 30°13' W 093°16'0 0.0
2017-Nov-19 11:53N 30°13' W 093°16'0 0.0
2017-Nov-19 11:26N 30°13' W 093°16'0 0.0
2017-Nov-19 07:29N 30°13' W 093°16'0 0.0
2017-Nov-19 06:41N 30°13' W 093°16'0 0.0
2017-Nov-19 06:17N 30°13' W 093°16'0 0.0
2017-Nov-18 19:47N 30°13' W 093°16'0 0.0
2017-Nov-18 19:17N 30°13' W 093°16'0 0.0
2017-Nov-18 18:59N 30°13' W 093°16'0 0.0
2017-Nov-18 18:29N 30°13' W 093°16'0 0.0
2017-Nov-18 17:47N 30°13' W 093°16'0 0.0
2017-Nov-18 17:29N 30°13' W 093°16'0 0.0
2017-Nov-18 16:41N 30°13' W 093°16'0 0.0
2017-Nov-18 16:17N 30°13' W 093°16'0 0.0
2017-Nov-18 02:05N 30°13' W 093°16'0 0.0
2017-Nov-17 22:41N 30°13' W 093°16'0 0.0
2017-Nov-17 22:29N 30°13' W 093°16'0 0.0
2017-Nov-17 21:41N 30°13' W 093°16'0 0.0
2017-Nov-17 20:11N 30°13' W 093°16'0 0.0
2017-Nov-17 19:53N 30°13' W 093°16'0 0.0
2017-Nov-17 19:29N 30°13' W 093°16'0 0.0
2017-Nov-17 18:59N 30°13' W 093°16'0 0.0
2017-Nov-17 18:23N 30°13' W 093°16'0 0.0
2017-Nov-17 17:47N 30°13' W 093°16'0 0.0
2017-Nov-17 17:29N 30°13' W 093°16'0 0.0
2017-Nov-17 16:29N 30°13' W 093°16'0 0.0
2017-Nov-17 15:59N 30°13' W 093°16'0 0.0
2017-Nov-17 15:29N 30°13' W 093°16'0 0.0
2017-Nov-17 14:41N 30°13' W 093°16'0 0.0
2017-Nov-17 14:29N 30°13' W 093°16'0 0.0
2017-Nov-17 13:59N 30°13' W 093°16'0 0.0
2017-Nov-17 13:05N 30°13' W 093°16'0 0.0
2017-Nov-17 12:59N 30°13' W 093°16'0 0.0
2017-Nov-17 10:17N 30°13' W 093°16'0 0.0
2017-Nov-17 09:59N 30°13' W 093°16'0 0.0
2017-Nov-17 09:29N 30°13' W 093°16'0 0.0
2017-Nov-17 08:47N 30°13' W 093°16'0 0.0
2017-Nov-17 08:23N 30°13' W 093°16'0 0.0
2017-Nov-17 06:41N 30°13' W 093°16'0 0.0
2017-Nov-17 05:23N 30°13' W 093°16'0 0.0
2017-Nov-17 04:53N 30°13' W 093°16'0 0.0
2017-Nov-17 04:29N 30°13' W 093°16'0 0.0
2017-Nov-17 03:59N 30°13' W 093°16'0 0.0
2017-Nov-17 03:26N 30°13' W 093°16'0 0.0
2017-Nov-17 02:59N 30°13' W 093°16'0 0.0
2017-Nov-17 02:11N 30°13' W 093°16'0 0.0
2017-Nov-17 01:59N 30°13' W 093°16'0 0.0
2017-Nov-17 00:05N 30°13' W 093°16'0 0.0
2017-Nov-16 23:59N 30°13' W 093°16'0 0.0
2017-Nov-16 23:29N 30°13' W 093°16'0 0.0
2017-Nov-16 22:59N 30°13' W 093°16'0 0.0
2017-Nov-16 22:23N 30°13' W 093°16'0 0.0
2017-Nov-16 21:53N 30°13' W 093°16'0 0.0
2017-Nov-16 21:29N 30°13' W 093°16'0 0.0
2017-Nov-16 20:53N 30°13' W 093°16'0 0.0
2017-Nov-16 15:17N 30°13' W 093°16'0 0.0
2017-Nov-16 14:47N 30°13' W 093°16'0 0.0
2017-Nov-16 14:20N 30°13' W 093°16'0 0.0
2017-Nov-16 10:32N 30°13' W 093°16'0 0.0
2017-Nov-16 10:26N 30°13' W 093°16'0 0.0
2017-Nov-16 09:56N 30°13' W 093°16'0 0.0
2017-Nov-16 09:26N 30°13' W 093°16'0 0.0
2017-Nov-16 06:08N 30°13' W 093°16'0 0.0
2017-Nov-16 05:56N 30°13' W 093°16'0 0.0
2017-Nov-16 05:20N 30°13' W 093°16'0 0.0
2017-Nov-16 03:32N 30°13' W 093°16'0 0.0
2017-Nov-16 03:20N 30°13' W 093°16'0 0.0
2017-Nov-16 02:56N 30°13' W 093°16'0 0.0
2017-Nov-16 01:20N 30°13' W 093°16'0 0.0
2017-Nov-15 23:26N 30°13' W 093°16'0 0.0
2017-Nov-15 22:56N 30°13' W 093°16'0 0.0
2017-Nov-15 22:14N 30°13' W 093°16'0 0.0
2017-Nov-15 21:50N 30°13' W 093°16'0 0.0
2017-Nov-15 21:26N 30°13' W 093°16'0 0.0
2017-Nov-15 20:38N 30°13' W 093°16'0 0.0
2017-Nov-15 19:14N 30°13' W 093°16'0 0.0
2017-Nov-15 18:50N 30°13' W 093°16'0 0.0
2017-Nov-15 18:26N 30°13' W 093°16'0 0.0
2017-Nov-15 17:32N 30°13' W 093°16'0 0.0
2017-Nov-15 17:02N 30°13' W 093°16'0 0.0
2017-Nov-15 16:50N 30°13' W 093°16'0 0.0
2017-Nov-15 16:26N 30°13' W 093°16'0 0.0
2017-Nov-15 15:59N 30°13' W 093°16'0 0.0
2017-Nov-15 15:29N 30°13' W 093°16'0 0.0
2017-Nov-15 14:47N 30°13' W 093°16'0 0.0
2017-Nov-15 09:08N 30°13' W 093°16'0 0.0
2017-Nov-15 08:59N 30°13' W 093°16'0 0.0
2017-Nov-15 06:41N 30°13' W 093°16'0 0.0
2017-Nov-15 05:53N 30°13' W 093°16'0 0.0
2017-Nov-15 04:29N 30°13' W 093°16'0 0.0
2017-Nov-15 03:44N 30°13' W 093°16'0 0.0
2017-Nov-15 01:44N 30°13' W 093°16'0 0.0
2017-Nov-15 01:26N 30°13' W 093°16'0 0.0
2017-Nov-15 00:26N 30°13' W 093°16'0 0.0
2017-Nov-14 23:56N 30°13' W 093°16'0 0.0
2017-Nov-14 23:29N 30°13' W 093°16'0 0.0
2017-Nov-14 22:59N 30°13' W 093°16'0 0.0
2017-Nov-14 22:23N 30°13' W 093°16'0 0.0
2017-Nov-14 21:59N 30°13' W 093°16'0 0.0
2017-Nov-14 21:29N 30°13' W 093°16'0 0.0
2017-Nov-14 20:59N 30°13' W 093°16'0 0.0
2017-Nov-14 20:29N 30°13' W 093°16'0 0.0
2017-Nov-14 19:59N 30°13' W 093°16'0 0.0
2017-Nov-14 19:17N 30°13' W 093°16'0 0.0
2017-Nov-14 18:59N 30°13' W 093°16'0 0.0
2017-Nov-14 18:29N 30°13' W 093°16'0 0.0
2017-Nov-14 17:47N 30°13' W 093°16'0 0.0
2017-Nov-14 17:29N 30°13' W 093°16'0 0.0
2017-Nov-14 16:59N 30°13' W 093°16'0 0.0
2017-Nov-14 16:29N 30°13' W 093°16'0 0.0
2017-Nov-14 15:59N 30°13' W 093°16'0 0.0
2017-Nov-14 15:29N 30°13' W 093°16'0 0.0
2017-Nov-14 14:44N 30°13' W 093°16'0 0.0
2017-Nov-14 14:23N 30°13' W 093°16'0 0.0
2017-Nov-14 13:53N 30°13' W 093°16'0 0.0
2017-Nov-14 13:17N 30°13' W 093°16'  

Dump ship's entire track history